Time;durP1;ratioP1;P1;durP2;ratioP2;P2;SDS_P1;SDS_P2;PMS_P1;PMS_P2;Temp;Humidity;BMP_temperature;BMP_pressure;BME280_temperature;BME280_humidity;BME280_pressure;Samples;Min_cycle;Max_cycle;Signal;HPM_P1;HPM_P2
2022/05/24 00:01:12;;;;;;;37.35;33.85;;;;;;;13.55;89.49;100006.72;4972287;28;20027;-65
2022/05/24 00:03:37;;;;;;;37.42;34.08;;;;;;;13.67;89.20;100025.44;4971289;28;20356;-65
2022/05/24 00:06:03;;;;;;;38.10;34.70;;;;;;;13.70;89.38;100025.09;4971716;28;20205;-64
2022/05/24 00:08:29;;;;;;;38.75;35.35;;;;;;;13.68;89.56;100026.25;4954247;28;20101;-64
2022/05/24 00:10:54;;;;;;;39.85;36.25;;;;;;;13.69;89.06;100015.66;4990571;28;20483;-64
2022/05/24 00:13:20;;;;;;;41.28;37.55;;;;;;;13.61;89.28;100007.88;4990120;28;20418;-64
2022/05/24 00:15:45;;;;;;;40.28;36.72;;;;;;;13.59;89.48;100012.44;4992636;28;20474;-64
2022/05/24 00:18:18;;;;;;;41.28;37.70;;;;;;;13.66;88.84;100013.41;4979311;28;20395;-65
2022/05/24 00:20:46;;;;;;;42.33;38.47;;;;;;;13.52;89.09;100014.88;4987983;28;20088;-65
2022/05/24 00:23:12;;;;;;;41.83;38.05;;;;;;;13.61;88.77;100009.66;4981530;28;20073;-64
2022/05/24 00:25:40;;;;;;;41.15;37.53;;;;;;;13.55;88.54;99995.50;4974054;28;20038;-64
2022/05/24 00:28:07;;;;;;;39.55;36.08;;;;;;;13.56;88.21;100007.53;4953336;28;20462;-64
2022/05/24 00:30:33;;;;;;;40.50;37.00;;;;;;;13.46;88.72;100012.09;4952533;28;20034;-65
2022/05/24 00:32:58;;;;;;;36.38;33.03;;;;;;;13.42;87.67;100005.59;4975598;28;20025;-66
2022/05/24 00:35:24;;;;;;;36.08;32.65;;;;;;;13.46;87.37;100002.50;4989716;28;20084;-65
2022/05/24 00:37:50;;;;;;;36.58;33.13;;;;;;;13.45;87.53;100002.66;4989782;28;20553;-64
2022/05/24 00:40:43;;;;;;;37.03;33.40;;;;;;;13.48;87.62;100020.59;4989055;28;20035;-64
2022/05/24 00:43:19;;;;;;;37.80;34.30;;;;;;;13.31;87.83;100009.34;4979700;28;20026;-68
2022/05/24 00:45:51;;;;;;;38.60;35.13;;;;;;;13.31;87.98;100009.34;4972691;28;20460;-64
2022/05/24 00:48:28;;;;;;;39.70;36.05;;;;;;;13.45;87.27;100011.28;4970541;28;20061;-64
2022/05/24 00:50:54;;;;;;;41.63;37.83;;;;;;;13.31;87.31;100013.75;4976662;28;20019;-64
2022/05/24 00:53:25;;;;;;;41.38;37.55;;;;;;;13.32;87.52;100010.16;4969359;28;20431;-64
2022/05/24 00:55:56;;;;;;;43.40;39.42;;;;;;;13.25;88.06;100021.22;4970382;28;20027;-64
2022/05/24 00:58:39;;;;;;;45.83;41.53;;;;;;;13.32;88.19;100012.78;4970697;28;20035;-65
2022/05/24 01:01:31;;;;;;;47.30;42.80;;;;;;;13.14;88.09;100021.53;4988690;28;20521;-64
2022/05/24 01:03:57;;;;;;;47.22;42.83;;;;;;;13.17;88.21;99997.75;4989471;28;20053;-64
2022/05/24 01:06:23;;;;;;;46.90;42.50;;;;;;;13.25;88.27;100004.81;4988802;28;20084;-64
2022/05/24 01:08:49;;;;;;;44.92;40.92;;;;;;;13.31;87.95;100011.16;4989047;28;20033;-65
2022/05/24 01:11:15;;;;;;;43.78;39.85;;;;;;;13.28;87.72;100010.47;4988641;28;20034;-64
2022/05/24 01:13:42;;;;;;;42.17;38.22;;;;;;;13.29;87.32;100013.88;4971468;28;20030;-64
2022/05/24 01:16:09;;;;;;;39.17;35.58;;;;;;;13.31;86.80;100009.34;4982496;28;20134;-66
2022/05/24 01:18:35;;;;;;;37.63;34.10;;;;;;;13.23;87.17;99999.72;4986849;28;20045;-64
2022/05/24 01:21:04;;;;;;;36.78;33.38;;;;;;;13.26;86.89;100002.03;4988635;28;20022;-64
2022/05/24 01:23:52;;;;;;;35.70;32.30;;;;;;;13.27;86.32;100003.66;4988433;28;20128;-64
2022/05/24 01:26:34;;;;;;;34.67;31.35;;;;;;;13.26;86.19;100007.22;4985302;28;20048;-63
2022/05/24 01:29:03;;;;;;;33.35;30.15;;;;;;;13.26;85.76;99998.59;4977652;28;20026;-64
2022/05/24 01:36:59;;;;;;;30.02;27.15;;;;;;;13.03;85.98;99980.19;4983534;28;20041;-67
2022/05/24 01:39:25;;;;;;;27.35;24.77;;;;;;;12.99;86.26;99994.47;4969955;28;20030;-64
2022/05/24 01:41:51;;;;;;;27.98;25.17;;;;;;;13.03;86.26;99994.00;4986854;28;20121;-64
2022/05/24 01:44:37;;;;;;;25.52;22.98;;;;;;;12.85;87.29;99998.53;4970897;28;20057;-64
2022/05/24 01:47:03;;;;;;;24.45;21.88;;;;;;;12.96;85.74;100010.41;4988821;28;20306;-64
2022/05/24 01:49:36;;;;;;;26.25;23.52;;;;;;;12.82;86.81;100029.25;4987927;28;20590;-64
2022/05/24 01:52:09;;;;;;;23.95;21.55;;;;;;;12.85;86.19;100028.97;4985636;28;20038;-64
2022/05/24 01:54:39;;;;;;;22.60;20.30;;;;;;;12.75;86.45;100029.91;4981867;28;20070;-64
2022/05/24 01:57:31;;;;;;;23.85;21.45;;;;;;;12.71;86.74;100038.19;4988721;28;20041;-64
2022/05/24 01:59:59;;;;;;;21.35;19.23;;;;;;;12.64;86.35;100025.00;4983720;28;20062;-64
2022/05/24 02:02:27;;;;;;;22.55;19.10;;;;;;;12.67;86.35;100016.88;4974979;28;20027;-64
2022/05/24 02:04:53;;;;;;;20.70;18.60;;;;;;;12.52;86.12;100018.44;4968646;28;20030;-64
2022/05/24 02:07:24;;;;;;;21.02;17.25;;;;;;;12.49;86.96;100029.97;4980841;28;20034;-65
2022/05/24 02:09:53;;;;;;;18.70;15.77;;;;;;;12.48;86.04;100024.94;4987964;28;20033;-64
2022/05/24 02:12:42;;;;;;;17.73;15.70;;;;;;;12.41;86.12;100016.94;4988294;28;20041;-64
2022/05/24 02:15:17;;;;;;;18.02;14.32;;;;;;;12.33;85.54;100003.91;4987465;28;20474;-64
2022/05/24 02:17:45;;;;;;;17.17;14.20;;;;;;;12.29;86.07;100012.19;4977145;28;20482;-64
2022/05/24 02:20:17;;;;;;;14.67;12.90;;;;;;;12.37;85.57;100014.81;4970418;28;20404;-64
2022/05/24 02:22:44;;;;;;;16.00;12.25;;;;;;;12.39;84.96;100007.69;4987516;28;20029;-65
2022/05/24 02:25:15;;;;;;;15.07;11.80;;;;;;;12.41;85.02;100013.53;4980668;28;20053;-67
2022/05/24 02:27:43;;;;;;;16.15;11.98;;;;;;;12.22;84.92;100023.22;4982487;28;20045;-65
2022/05/24 02:30:11;;;;;;;14.05;10.93;;;;;;;12.13;85.57;100034.53;4981118;28;20035;-64
2022/05/24 02:32:36;;;;;;;14.93;10.90;;;;;;;12.11;84.65;100026.06;4980315;28;20487;-64
2022/05/24 02:35:02;;;;;;;18.00;11.00;;;;;;;12.00;85.21;100028.13;4970887;28;20328;-65
2022/05/24 02:37:27;;;;;;;14.80;10.68;;;;;;;12.02;85.46;100029.59;4970257;28;20034;-64
2022/05/24 02:42:37;;;;;;;14.45;10.30;;;;;;;12.04;84.80;100025.03;4987112;28;20096;-66
2022/05/24 02:45:02;;;;;;;12.43;9.77;;;;;;;12.03;85.01;100027.78;4989556;28;20022;-65
2022/05/24 02:47:28;;;;;;;15.65;9.60;;;;;;;11.99;84.80;100016.91;4991753;28;20066;-65
2022/05/24 02:49:53;;;;;;;13.85;8.98;;;;;;;11.95;85.53;100031.19;4987849;28;20023;-65
2022/05/24 02:52:18;;;;;;;13.55;8.70;;;;;;;11.95;84.99;100025.97;4990622;28;20058;-66
2022/05/24 02:54:44;;;;;;;11.48;8.70;;;;;;;12.00;84.86;100018.53;4991199;28;20022;-64
2022/05/24 02:57:09;;;;;;;13.15;8.68;;;;;;;11.91;85.84;100016.84;4991450;28;20037;-64
2022/05/24 02:59:35;;;;;;;13.05;8.50;;;;;;;12.02;85.18;100016.59;4991400;28;20026;-65
2022/05/24 03:02:04;;;;;;;12.88;8.55;;;;;;;11.94;85.34;100013.97;4991328;28;20109;-64
2022/05/24 03:04:29;;;;;;;12.18;7.80;;;;;;;11.92;84.83;100034.06;4991291;28;20065;-64
2022/05/24 03:09:38;;;;;;;13.18;7.00;;;;;;;11.95;84.43;100023.38;4990218;28;20069;-65
2022/05/24 03:14:52;;;;;;;14.05;7.13;;;;;;;11.97;84.74;100024.03;4990636;28;20123;-66
2022/05/24 03:17:18;;;;;;;13.70;7.03;;;;;;;11.92;84.60;100036.66;4990903;28;20026;-65
2022/05/24 03:19:44;;;;;;;12.95;7.32;;;;;;;11.96;84.35;100017.22;4991562;28;20026;-64
2022/05/24 03:22:10;;;;;;;12.20;7.03;;;;;;;12.01;84.69;100025.38;4991262;28;20030;-63
2022/05/24 03:24:36;;;;;;;12.05;7.07;;;;;;;12.01;85.17;100030.56;4986720;28;20018;-64
2022/05/24 03:27:11;;;;;;;11.80;6.78;;;;;;;11.92;85.76;100049.66;4974338;28;20474;-64
2022/05/24 03:29:38;;;;;;;13.57;6.72;;;;;;;11.97;85.17;100042.22;4990117;28;20035;-64
2022/05/24 03:32:04;;;;;;;14.13;6.72;;;;;;;11.93;84.95;100038.31;4990371;28;20030;-64
2022/05/24 03:34:30;;;;;;;11.43;6.85;;;;;;;11.91;85.47;100040.22;4973305;28;20030;-64
2022/05/24 03:36:55;;;;;;;14.00;7.43;;;;;;;11.88;85.57;100019.78;4974619;28;20517;-64
2022/05/24 03:39:20;;;;;;;12.85;7.25;;;;;;;11.77;85.46;100027.78;4971068;28;20037;-64
2022/05/24 03:41:46;;;;;;;11.90;7.32;;;;;;;11.78;85.72;100019.03;4981015;28;20418;-64
2022/05/24 03:44:11;;;;;;;14.07;6.55;;;;;;;11.87;84.64;100023.31;4990428;28;20022;-64
2022/05/24 03:46:37;;;;;;;14.40;7.40;;;;;;;11.80;85.92;100030.06;4986145;28;20027;-64
2022/05/24 03:49:04;;;;;;;13.43;6.55;;;;;;;11.78;85.21;100019.84;4981583;28;20494;-64
2022/05/24 03:51:29;;;;;;;11.77;6.72;;;;;;;11.79;85.38;100025.84;4978193;28;20026;-65
2022/05/24 03:53:54;;;;;;;13.80;7.13;;;;;;;11.85;85.02;100030.44;4981138;28;20411;-64
2022/05/24 03:56:20;;;;;;;11.38;6.72;;;;;;;11.83;85.00;100035.00;4979403;28;20038;-64
2022/05/24 03:58:45;;;;;;;12.75;7.00;;;;;;;11.77;85.13;100038.19;4965305;28;20430;-66
2022/05/24 04:01:10;;;;;;;10.15;6.63;;;;;;;11.74;85.27;100035.88;4990202;28;20085;-66
2022/05/24 04:03:36;;;;;;;12.38;6.90;;;;;;;11.73;85.36;100047.22;4989962;28;20041;-64
2022/05/24 04:06:02;;;;;;;10.60;7.05;;;;;;;11.75;85.78;100047.88;4971642;28;20042;-64
2022/05/24 04:08:29;;;;;;;12.77;7.95;;;;;;;11.72;85.95;100056.00;4978458;28;20030;-64
2022/05/24 04:11:03;;;;;;;14.27;8.27;;;;;;;11.73;86.25;100062.81;4977712;28;20119;-64
2022/05/24 04:13:29;;;;;;;13.02;8.55;;;;;;;11.74;85.08;100067.03;4976175;28;20026;-64
2022/05/24 04:15:54;;;;;;;14.32;8.73;;;;;;;11.59;85.96;100066.78;4989537;28;20026;-64
2022/05/24 04:18:20;;;;;;;13.73;8.93;;;;;;;11.73;85.21;100052.44;4970659;28;20470;-66
2022/05/24 04:20:45;;;;;;;14.00;9.30;;;;;;;11.70;85.97;100069.97;4987983;28;20456;-66
2022/05/24 04:23:12;;;;;;;14.63;10.35;;;;;;;11.73;85.18;100088.78;4988440;28;20029;-65
2022/05/24 04:25:38;;;;;;;16.67;9.95;;;;;;;11.60;86.39;100090.00;4975397;28;20158;-65
2022/05/24 04:28:04;;;;;;;16.05;10.85;;;;;;;11.62;86.56;100098.44;4969811;28;20139;-64
2022/05/24 04:30:29;;;;;;;13.65;10.48;;;;;;;11.69;85.39;100109.88;4970499;28;20054;-64
2022/05/24 04:32:55;;;;;;;15.30;10.75;;;;;;;11.71;85.60;100096.75;4985437;28;20480;-64
2022/05/24 04:35:20;;;;;;;16.00;11.20;;;;;;;11.60;85.38;100084.81;4977699;28;20109;-64
2022/05/24 04:37:45;;;;;;;14.38;11.15;;;;;;;11.65;85.38;100082.56;4970678;28;20121;-64
2022/05/24 04:40:11;;;;;;;16.15;11.32;;;;;;;11.63;85.81;100068.91;4969176;28;20029;-64
2022/05/24 04:42:38;;;;;;;18.88;11.88;;;;;;;11.65;85.56;100069.59;4971536;28;20522;-65
2022/05/24 04:45:08;;;;;;;15.20;11.45;;;;;;;11.73;85.47;100075.81;4969464;28;20499;-65
2022/05/24 04:47:34;;;;;;;13.82;11.93;;;;;;;11.59;86.00;100072.78;4978716;28;20041;-64
2022/05/24 04:50:03;;;;;;;17.45;13.35;;;;;;;11.58;85.97;100080.72;4977796;28;20033;-64
2022/05/24 04:52:33;;;;;;;15.98;12.73;;;;;;;11.60;86.67;100110.78;4978410;28;20058;-64
2022/05/24 04:54:58;;;;;;;17.02;13.43;;;;;;;11.59;85.89;100098.75;4989880;28;20033;-63
2022/05/24 04:57:24;;;;;;;14.50;12.48;;;;;;;11.78;84.87;100104.75;4976083;28;20035;-63
2022/05/24 04:59:49;;;;;;;15.52;12.75;;;;;;;11.69;85.68;100098.66;4952874;28;20493;-64
2022/05/24 05:02:15;;;;;;;15.18;12.70;;;;;;;11.74;85.55;100099.03;4980433;28;20030;-63
2022/05/24 05:04:40;;;;;;;17.67;12.45;;;;;;;11.74;86.09;100106.81;4988418;28;20042;-64
2022/05/24 05:07:06;;;;;;;15.73;12.60;;;;;;;11.73;85.58;100097.41;4989025;28;20050;-64
2022/05/24 05:09:35;;;;;;;16.73;12.63;;;;;;;11.74;85.24;100106.00;4988180;28;20030;-64
2022/05/24 05:12:06;;;;;;;15.55;12.48;;;;;;;11.68;85.30;100103.03;4989019;28;20034;-65
2022/05/24 05:14:32;;;;;;;15.13;12.63;;;;;;;11.62;85.03;100124.41;4971394;28;20034;-64
2022/05/24 05:16:58;;;;;;;14.63;12.48;;;;;;;11.65;85.70;100124.13;4989251;28;20054;-64
2022/05/24 05:19:24;;;;;;;14.23;12.60;;;;;;;11.54;86.12;100132.16;4988786;28;20038;-64
2022/05/24 05:21:49;;;;;;;15.77;13.05;;;;;;;11.61;85.89;100148.78;4989207;28;20369;-64
2022/05/24 05:24:15;;;;;;;17.58;13.15;;;;;;;11.67;85.91;100153.38;4983359;28;20070;-66
2022/05/24 05:26:40;;;;;;;16.27;13.32;;;;;;;11.69;85.35;100161.81;4988530;28;20037;-64
2022/05/24 05:29:05;;;;;;;16.85;13.32;;;;;;;11.74;85.43;100161.38;4971495;28;20038;-64
2022/05/24 05:31:31;;;;;;;18.80;12.73;;;;;;;11.75;84.99;100155.22;4987652;28;20113;-67
2022/05/24 05:33:59;;;;;;;15.57;13.18;;;;;;;11.72;85.14;100159.91;4988419;28;20125;-64
2022/05/24 05:36:27;;;;;;;15.67;13.10;;;;;;;11.75;85.01;100165.59;4976687;28;20038;-64
2022/05/24 05:38:53;;;;;;;16.40;12.88;;;;;;;11.72;84.61;100157.31;4969058;28;20390;-63
2022/05/24 05:41:28;;;;;;;16.65;12.85;;;;;;;11.64;84.63;100158.88;4975814;28;20034;-64
2022/05/24 05:43:54;;;;;;;17.42;12.10;;;;;;;11.79;84.49;100150.53;4976093;28;20563;-64
2022/05/24 05:46:19;;;;;;;16.80;12.30;;;;;;;11.75;85.31;100149.19;4973277;28;20037;-64
2022/05/24 05:48:46;;;;;;;14.65;12.38;;;;;;;11.72;86.19;100159.91;4976629;28;20021;-65
2022/05/24 05:51:14;;;;;;;14.38;11.13;;;;;;;11.82;84.66;100150.28;4970868;28;20039;-63
2022/05/24 05:53:39;;;;;;;17.27;11.47;;;;;;;11.78;84.97;100154.13;4976046;28;20074;-63
2022/05/24 05:56:12;;;;;;;13.93;10.85;;;;;;;11.73;85.46;100151.16;4985712;28;20129;-69
2022/05/24 05:58:38;;;;;;;16.80;10.73;;;;;;;11.73;85.15;100141.56;4987296;28;20041;-68
2022/05/24 06:01:03;;;;;;;16.83;11.15;;;;;;;11.74;84.82;100157.97;4975029;28;20491;-64
2022/05/24 06:03:30;;;;;;;15.20;10.65;;;;;;;11.82;85.10;100165.88;4970449;28;20026;-63
2022/05/24 06:06:00;;;;;;;14.32;10.45;;;;;;;11.86;85.21;100181.00;4976115;28;20022;-63
2022/05/24 06:08:25;;;;;;;16.67;10.73;;;;;;;11.83;84.50;100173.53;4967594;28;20077;-64
2022/05/24 06:10:51;;;;;;;15.82;10.40;;;;;;;11.75;85.13;100164.78;4979990;28;20038;-65
2022/05/24 06:13:16;;;;;;;13.30;10.10;;;;;;;11.92;84.77;100182.19;4973049;28;20030;-66
2022/05/24 06:15:42;;;;;;;15.65;10.48;;;;;;;11.87;84.24;100190.44;4973614;28;20340;-63
2022/05/24 06:18:08;;;;;;;13.75;10.63;;;;;;;11.89;83.87;100192.91;4968393;28;20030;-64
2022/05/24 06:20:33;;;;;;;13.77;9.93;;;;;;;11.92;84.42;100213.38;4968454;28;20407;-64
2022/05/24 06:22:59;;;;;;;15.18;9.73;;;;;;;11.85;84.00;100207.94;4980350;28;20034;-64
2022/05/24 06:25:27;;;;;;;14.40;10.30;;;;;;;11.85;83.95;100207.13;4977475;28;20487;-67
2022/05/24 06:27:53;;;;;;;13.07;10.77;;;;;;;11.74;84.68;100200.34;4977783;28;20061;-64
2022/05/24 06:30:20;;;;;;;12.35;11.00;;;;;;;11.84;84.25;100205.50;4987638;28;20069;-64
2022/05/24 06:32:47;;;;;;;15.15;11.85;;;;;;;11.84;83.91;100210.72;4980949;28;20034;-63
2022/05/24 06:35:12;;;;;;;17.08;13.73;;;;;;;11.82;84.08;100217.84;4969507;28;20062;-65
2022/05/24 06:37:38;;;;;;;14.65;13.25;;;;;;;11.81;83.79;100221.34;4988019;28;20054;-64
2022/05/24 06:40:04;;;;;;;15.15;13.55;;;;;;;11.83;83.33;100211.69;4979108;28;20498;-64
2022/05/24 06:42:30;;;;;;;18.30;15.60;;;;;;;11.85;83.92;100213.16;4976100;28;20030;-64
2022/05/24 06:44:56;;;;;;;17.35;15.00;;;;;;;11.90;82.97;100218.72;4975196;28;20164;-63
2022/05/24 06:47:21;;;;;;;17.23;14.70;;;;;;;11.91;83.24;100220.34;4975795;28;20475;-64
2022/05/24 06:49:47;;;;;;;17.25;14.75;;;;;;;11.93;83.54;100220.22;4978415;28;20022;-65
2022/05/24 06:52:13;;;;;;;15.68;14.00;;;;;;;12.00;83.42;100221.25;4969671;28;20105;-66
2022/05/24 06:54:39;;;;;;;16.45;13.75;;;;;;;12.12;83.63;100225.25;4970679;28;20045;-64
2022/05/24 06:57:05;;;;;;;14.10;12.68;;;;;;;12.18;83.09;100229.84;4968519;28;20029;-64
2022/05/24 07:02:25;;;;;;;12.38;10.52;;;;;;;12.32;81.36;100243.28;4971418;28;20598;-64
2022/05/24 07:04:58;;;;;;;13.93;11.77;;;;;;;12.44;81.80;100253.31;4987802;28;20026;-64
2022/05/24 07:07:24;;;;;;;14.52;11.30;;;;;;;12.55;81.36;100254.81;4970096;28;20030;-64
2022/05/24 07:09:51;;;;;;;14.98;11.20;;;;;;;12.61;81.29;100249.00;4987679;28;20382;-64
2022/05/24 07:12:18;;;;;;;11.23;9.63;;;;;;;12.58;80.01;100256.31;4986943;28;20641;-64
2022/05/24 07:14:43;;;;;;;11.95;10.05;;;;;;;12.63;80.56;100260.09;4978664;28;20050;-63
2022/05/24 07:17:08;;;;;;;12.90;9.73;;;;;;;12.67;79.90;100277.06;4980685;28;20019;-65
2022/05/24 07:19:34;;;;;;;10.73;8.90;;;;;;;12.73;79.42;100275.59;4987568;28;20358;-63
2022/05/24 07:21:59;;;;;;;11.88;8.88;;;;;;;12.72;78.75;100269.59;4954172;28;20042;-63
2022/05/24 07:24:26;;;;;;;12.07;9.07;;;;;;;12.87;79.05;100284.66;4984435;28;20109;-65
2022/05/24 07:26:51;;;;;;;11.50;10.10;;;;;;;12.86;78.88;100270.00;4966596;28;20034;-64
2022/05/24 07:29:17;;;;;;;11.55;9.43;;;;;;;12.79;78.19;100253.34;4987355;28;20029;-64
2022/05/24 07:31:42;;;;;;;12.73;9.93;;;;;;;12.99;77.81;100280.81;4988697;28;20053;-63
2022/05/24 07:34:07;;;;;;;12.82;10.13;;;;;;;13.14;78.43;100279.28;4990985;28;20356;-63
2022/05/24 07:36:33;;;;;;;11.45;10.25;;;;;;;13.18;77.60;100275.38;4977677;28;20105;-64
2022/05/24 07:38:59;;;;;;;11.30;10.00;;;;;;;13.29;76.45;100288.16;4971945;28;20138;-63
2022/05/24 07:46:52;;;;;;;11.05;9.95;;;;;;;13.38;74.17;100293.44;4990987;28;20049;-66
2022/05/24 07:49:18;;;;;;;11.15;8.18;;;;;;;13.41;74.62;100290.50;4990533;28;20034;-65
2022/05/24 07:51:43;;;;;;;7.68;4.97;;;;;;;13.39;73.06;100289.84;4984808;28;20039;-63
2022/05/24 07:54:08;;;;;;;9.30;4.82;;;;;;;13.53;73.94;100294.44;4990557;28;20046;-67
2022/05/24 07:56:34;;;;;;;7.93;4.50;;;;;;;13.56;73.61;100299.34;4990142;28;20049;-63
2022/05/24 07:58:59;;;;;;;8.95;4.43;;;;;;;13.74;73.85;100297.47;4990107;28;20546;-63
2022/05/24 08:01:24;;;;;;;6.43;4.35;;;;;;;13.55;71.38;100271.66;4990675;28;20045;-63
2022/05/24 08:03:50;;;;;;;11.45;4.55;;;;;;;13.67;72.07;100304.28;4990392;28;20463;-65
2022/05/24 08:06:17;;;;;;;8.07;4.20;;;;;;;13.60;71.97;100295.47;4986314;28;20101;-64
2022/05/24 08:08:43;;;;;;;7.28;3.95;;;;;;;13.63;72.61;100300.34;4970652;28;20030;-63
2022/05/24 08:11:09;;;;;;;9.45;4.00;;;;;;;13.64;73.02;100291.56;4970194;28;20031;-64
2022/05/24 08:13:35;;;;;;;7.45;4.05;;;;;;;13.74;72.78;100296.63;4972439;28;20046;-64
2022/05/24 08:16:00;;;;;;;7.43;4.35;;;;;;;13.75;73.14;100299.09;4986671;28;20042;-64
2022/05/24 08:18:26;;;;;;;10.07;4.05;;;;;;;13.93;72.63;100298.16;4981020;28;20030;-63
2022/05/24 08:20:53;;;;;;;7.32;3.90;;;;;;;14.10;72.19;100297.19;4970383;28;20034;-63
2022/05/24 08:23:20;;;;;;;7.93;3.83;;;;;;;14.20;71.98;100287.44;4970903;28;20081;-64
2022/05/24 08:25:45;;;;;;;7.75;4.10;;;;;;;14.08;71.46;100288.72;4975282;28;20055;-63
2022/05/24 08:28:10;;;;;;;7.18;4.07;;;;;;;13.91;72.04;100287.06;4974929;28;20486;-62
2022/05/24 08:30:38;;;;;;;7.38;4.40;;;;;;;13.90;71.55;100307.13;4981951;28;20035;-67
2022/05/24 08:33:04;;;;;;;7.55;3.60;;;;;;;13.90;70.69;100298.47;4984405;28;20037;-63
2022/05/24 08:35:32;;;;;;;6.63;3.42;;;;;;;13.82;71.21;100315.75;4971953;28;20031;-69
2022/05/24 08:37:58;;;;;;;5.20;3.30;;;;;;;13.82;71.40;100307.94;4989806;28;20101;-63
2022/05/24 08:40:24;;;;;;;7.65;3.55;;;;;;;13.78;72.25;100311.81;4989291;28;20133;-64
2022/05/24 08:42:55;;;;;;;7.10;3.30;;;;;;;13.77;73.62;100338.84;4978588;28;20081;-67
2022/05/24 08:48:40;;;;;;;7.20;4.10;;;;;;;13.60;75.89;100344.97;4980046;28;20120;-63
2022/05/24 08:51:28;;;;;;;8.13;4.45;;;;;;;13.47;77.24;100347.19;4951503;28;20038;-64
2022/05/24 08:53:57;;;;;;;10.13;5.22;;;;;;;13.48;78.03;100354.84;4973791;28;20053;-63
2022/05/24 08:56:34;;;;;;;10.15;6.10;;;;;;;13.52;77.18;100363.16;4973933;28;20041;-64
2022/05/24 08:59:06;;;;;;;8.27;6.20;;;;;;;13.43;77.38;100358.91;4969350;28;20048;-66
2022/05/24 09:01:34;;;;;;;8.57;5.78;;;;;;;13.55;77.73;100355.06;4980586;28;20076;-65
2022/05/24 09:04:00;;;;;;;8.90;5.53;;;;;;;13.51;75.98;100364.13;4983099;28;20026;-64
2022/05/24 09:06:48;;;;;;;9.93;4.65;;;;;;;13.65;75.70;100366.19;4958070;28;20050;-67
2022/05/24 09:09:31;;;;;;;6.63;4.50;;;;;;;13.73;75.26;100376.63;4982238;28;20039;-63
2022/05/24 09:12:18;;;;;;;5.00;3.53;;;;;;;13.62;74.37;100376.91;4988491;28;20356;-66
2022/05/24 09:15:06;;;;;;;5.68;3.65;;;;;;;13.59;74.44;100385.03;4974078;28;20375;-63
2022/05/24 09:18:04;;;;;;;7.18;3.70;;;;;;;13.56;74.72;100390.56;4969458;28;20030;-64
2022/05/24 09:20:37;;;;;;;5.55;4.00;;;;;;;13.55;75.84;100400.16;4984104;28;20254;-65
2022/05/24 09:23:31;;;;;;;7.93;4.03;;;;;;;13.58;76.59;100395.59;4988994;28;20033;-64
2022/05/24 09:26:06;;;;;;;8.02;4.00;;;;;;;13.74;76.73;100400.91;4979358;28;20050;-64
2022/05/24 09:28:46;;;;;;;5.80;3.97;;;;;;;13.82;77.03;100409.59;4989155;28;20117;-62
2022/05/24 09:31:30;;;;;;;6.53;4.60;;;;;;;14.08;76.66;100408.69;4988687;28;20030;-63
2022/05/24 09:34:19;;;;;;;5.55;3.20;;;;;;;14.06;73.73;100408.03;4988279;28;20057;-64
2022/05/24 09:37:14;;;;;;;4.40;2.90;;;;;;;14.17;75.54;100418.19;4974666;28;20037;-63
2022/05/24 09:39:43;;;;;;;5.13;3.30;;;;;;;14.01;77.00;100423.34;4959507;28;20041;-64
2022/05/24 09:42:14;;;;;;;5.90;3.00;;;;;;;13.85;76.43;100428.47;4976520;28;20023;-64
2022/05/24 09:44:48;;;;;;;5.65;2.63;;;;;;;13.68;75.08;100427.59;4967179;28;20030;-63
2022/05/24 09:47:42;;;;;;;5.45;3.05;;;;;;;13.73;76.24;100436.56;4980935;28;20483;-66
2022/05/24 09:50:23;;;;;;;5.32;3.20;;;;;;;13.56;77.06;100440.06;4967454;28;20097;-63
2022/05/24 09:53:08;;;;;;;6.05;3.80;;;;;;;13.67;77.39;100442.41;4968775;28;20058;-67
2022/05/24 09:55:33;;;;;;;5.13;3.92;;;;;;;13.87;79.44;100450.00;4968292;28;20038;-63
2022/05/24 09:58:16;;;;;;;5.97;4.00;;;;;;;13.94;77.31;100449.22;4968884;28;20367;-68
2022/05/24 10:01:07;;;;;;;6.00;3.15;;;;;;;13.96;77.16;100464.72;4973057;28;20110;-63
2022/05/24 10:03:49;;;;;;;5.00;3.22;;;;;;;14.09;77.30;100452.84;4982217;28;20058;-66
2022/05/24 10:06:42;;;;;;;3.60;2.70;;;;;;;14.33;76.65;100454.72;4988124;28;20034;-63
2022/05/24 10:09:19;;;;;;;4.95;2.80;;;;;;;14.26;74.77;100466.78;4985830;28;20104;-62
2022/05/24 10:11:52;;;;;;;4.47;2.60;;;;;;;14.24;74.03;100460.91;4988038;28;20640;-63
2022/05/24 10:14:56;;;;;;;6.15;2.70;;;;;;;14.24;74.62;100473.16;4987897;28;20033;-63
2022/05/24 10:17:47;;;;;;;5.28;3.13;;;;;;;14.21;76.10;100466.44;4982738;28;20031;-63
2022/05/24 10:20:23;;;;;;;6.15;3.10;;;;;;;14.16;77.32;100484.34;4970889;28;20026;-64
2022/05/24 10:23:01;;;;;;;4.15;2.80;;;;;;;14.05;78.24;100492.47;4970604;28;20077;-64
2022/05/24 10:25:39;;;;;;;3.92;2.20;;;;;;;14.05;78.92;100493.28;4977614;28;20081;-64
2022/05/24 10:28:13;;;;;;;6.72;2.70;;;;;;;14.03;80.06;100494.41;4988148;28;20058;-63
2022/05/24 10:30:57;;;;;;;4.80;2.47;;;;;;;13.98;80.78;100507.06;4987841;28;20421;-66
2022/05/24 10:39:37;;;;;;;4.15;1.60;;;;;;;13.55;77.33;100521.81;4987805;28;20609;-67
2022/05/24 10:42:02;;;;;;;4.70;1.42;;;;;;;13.43;77.47;100523.03;4988073;28;20038;-66
2022/05/24 10:45:09;;;;;;;3.80;1.77;;;;;;;13.57;78.99;100514.66;4988021;28;20498;-64
2022/05/24 10:47:52;;;;;;;3.78;1.65;;;;;;;13.38;77.78;100520.03;4968459;28;20050;-63
2022/05/24 10:50:44;;;;;;;3.78;1.90;;;;;;;13.40;78.15;100520.72;4973810;28;20030;-63
2022/05/24 10:53:15;;;;;;;3.90;1.83;;;;;;;13.23;77.64;100517.97;4969997;28;20054;-63
2022/05/24 10:55:45;;;;;;;4.35;2.00;;;;;;;13.31;77.62;100530.25;4969926;28;20098;-64
2022/05/24 10:58:14;;;;;;;4.45;2.00;;;;;;;13.31;78.89;100532.03;4967919;28;20038;-64
2022/05/24 11:01:08;;;;;;;4.85;2.10;;;;;;;13.41;78.65;100530.97;4967510;28;20030;-64
2022/05/24 11:03:49;;;;;;;4.47;1.90;;;;;;;13.60;78.39;100532.59;4978282;28;20049;-64
2022/05/24 11:06:29;;;;;;;4.32;2.20;;;;;;;13.84;77.63;100531.13;4989998;28;20045;-64
2022/05/24 11:09:02;;;;;;;5.22;2.53;;;;;;;14.22;79.42;100520.25;4991781;28;20033;-64
2022/05/24 11:11:41;;;;;;;5.95;2.63;;;;;;;14.37;77.42;100523.09;4991081;28;20049;-64
2022/05/24 11:14:25;;;;;;;5.10;2.88;;;;;;;14.48;76.38;100519.41;4991616;28;20046;-62
2022/05/24 11:16:52;;;;;;;5.70;3.08;;;;;;;14.73;74.33;100526.31;4991385;28;20316;-63
2022/05/24 11:19:24;;;;;;;5.45;3.20;;;;;;;14.82;73.69;100529.78;4972288;28;20060;-65
2022/05/24 11:22:02;;;;;;;5.50;3.35;;;;;;;15.07;74.04;100509.72;4991380;28;20057;-62
2022/05/24 11:24:33;;;;;;;5.97;3.58;;;;;;;15.36;74.41;100527.53;4987798;28;20502;-63
2022/05/24 11:27:01;;;;;;;6.18;3.33;;;;;;;15.44;73.64;100532.78;4985102;28;20070;-63
2022/05/24 11:29:33;;;;;;;4.18;2.35;;;;;;;15.16;70.00;100545.34;4991264;28;20100;-63
2022/05/24 11:32:06;;;;;;;6.85;2.50;;;;;;;14.99;72.49;100544.50;4991341;28;20073;-68
2022/05/24 11:35:08;;;;;;;3.53;1.70;;;;;;;15.02;73.77;100548.56;4973492;28;20474;-65
2022/05/24 11:37:40;;;;;;;3.28;1.38;;;;;;;14.56;73.44;100548.13;4970231;28;20046;-65
2022/05/24 11:40:30;;;;;;;4.18;1.05;;;;;;;14.40;71.78;100548.06;4983153;28;20031;-67
2022/05/24 11:42:57;;;;;;;3.95;1.15;;;;;;;14.25;71.78;100556.44;4971836;28;20113;-65
2022/05/24 11:45:29;;;;;;;3.33;1.33;;;;;;;14.20;73.38;100569.13;4971553;28;20394;-64
2022/05/24 11:47:59;;;;;;;3.95;1.40;;;;;;;14.27;72.74;100561.50;4971800;28;20046;-65
2022/05/24 11:50:43;;;;;;;4.40;1.50;;;;;;;14.50;74.71;100553.97;4989394;28;20109;-64
2022/05/24 11:53:19;;;;;;;3.25;1.60;;;;;;;14.73;73.81;100557.66;4990518;28;20054;-64
2022/05/24 11:55:44;;;;;;;4.07;1.98;;;;;;;14.70;69.68;100555.38;4990917;28;20060;-65
2022/05/24 11:58:18;;;;;;;3.97;1.88;;;;;;;15.04;73.04;100567.53;4990653;28;20057;-66
2022/05/24 12:01:07;;;;;;;3.45;2.25;;;;;;;15.26;73.00;100566.91;4990431;28;20482;-64
2022/05/24 12:09:17;;;;;;;3.75;1.90;;;;;;;15.17;68.91;100572.28;4990207;28;20050;-67